This is the latest recevied weather packets stored in our database for station/object K4GSL. If no packets are shown the sender has not sent any weather packets the latest 10 day(s).
| Time | Temp. | Humidity | Pressure | Rain* | Wind** | Luminosity | Snow |
|---|---|---|---|---|---|---|---|
| 1777405122 | 16.11° C | 62% | 1027.7 hPa | 0 mm | - | 319 W/m² | - |
| 1777404820 | 15.56° C | 61% | 1027.8 hPa | 0 mm | - | 563 W/m² | - |
| 1777404517 | 15.56° C | 62% | 1027.8 hPa | 0 mm | - | 408 W/m² | - |
| 1777404213 | 14.44° C | 67% | 1027.6 hPa | 0 mm | - | 382 W/m² | - |
| 1777403909 | 14.44° C | 67% | 1027.7 hPa | 0 mm | - | 367 W/m² | - |
| 1777403609 | 15° C | 63% | 1027.9 hPa | 0 mm | - | 373 W/m² | - |
| 1777403304 | 15° C | 66% | 1027.8 hPa | 0 mm | - | 319 W/m² | - |
| 1777402999 | 14.44° C | 68% | 1027.9 hPa | 0 mm | - | 674 W/m² | - |
| 1777402694 | 13.89° C | 71% | 1027.9 hPa | 0 mm | - | 521 W/m² | - |
| 1777402394 | 13.33° C | 71% | 1027.9 hPa | 0 mm | - | 251 W/m² | - |
| 1777402092 | 13.89° C | 70% | 1028 hPa | 0 mm | - | 229 W/m² | - |
| 1777401788 | 13.89° C | 72% | 1027.9 hPa | 0 mm | - | 215 W/m² | - |
| 1777401482 | 13.89° C | 72% | 1028.1 hPa | 0 mm | - | 218 W/m² | - |
| 1777401178 | 13.89° C | 73% | 1028 hPa | 0 mm | - | 231 W/m² | - |
| 1777400874 | 13.89° C | 71% | 1027.9 hPa | 0 mm | - | 323 W/m² | - |
| 1777400570 | 13.33° C | 73% | 1027.9 hPa | 0 mm | - | 317 W/m² | - |
| 1777400268 | 13.33° C | 73% | 1027.9 hPa | 0 mm | - | 300 W/m² | - |
| 1777399964 | 12.78° C | 74% | 1027.9 hPa | 0 mm | - | 246 W/m² | - |
| 1777399660 | 13.33° C | 74% | 1028.1 hPa | 0 mm | - | 197 W/m² | - |
| 1777399358 | 12.78° C | 75% | 1028.1 hPa | 0 mm | - | 237 W/m² | - |
| 1777399055 | 12.78° C | 76% | 1028.1 hPa | 0 mm | - | 228 W/m² | - |
| 1777398752 | 12.78° C | 76% | 1028 hPa | 0 mm | - | 203 W/m² | - |
| 1777398449 | 12.22° C | 76% | 1028.1 hPa | 0 mm | - | 221 W/m² | - |
| 1777398146 | 12.22° C | 77% | 1028 hPa | 0 mm | - | 209 W/m² | - |
| 1777397843 | 11.67° C | 77% | 1028 hPa | 0 mm | - | 238 W/m² | - |
* Rain latest hour (hover to see other rain measurements)
** Current wind speed in m/s (hover to see current wind gust speed)